Terminal Aerodrome Forecast
Issued by NWS

Home | Current Version | Previous Version | Text Only | Print | Product List | Glossary On
Versions: 1 2 3 4 5 6 7 8 9 10 11 12 13 14 15 16 17 18 19 20
858
FTUS43 KDLH 280525
TAFHIB
TAF
KHIB 280525Z 2806/2906 VRB02KT 2SM BR SCT002 SCT070
      TEMPO 2806/2808 1/4SM FG SCT005
     FM280800 00000KT 1/4SM FG BKN002
      TEMPO 2811/2814 2SM BR SCT005
     FM281400 08005KT P6SM SCT040=

USA.gov is the U.S. government's official web portal to all federal, state and local government web resources and services.